sensor_id;sensor_type;location;lat;lon;timestamp;P1;durP1;ratioP1;P2;durP2;ratioP2
55493;SDS011;41355;50.390;19.096;2023-05-10T00:00:30;17.27;;;4.60;;
55493;SDS011;41355;50.390;19.096;2023-05-10T00:02:56;12.45;;;5.30;;
55493;SDS011;41355;50.390;19.096;2023-05-10T00:05:22;13.23;;;4.50;;
55493;SDS011;41355;50.390;19.096;2023-05-10T00:07:48;12.35;;;4.35;;
55493;SDS011;41355;50.390;19.096;2023-05-10T00:10:14;9.32;;;4.13;;
55493;SDS011;41355;50.390;19.096;2023-05-10T00:12:40;10.25;;;4.88;;
55493;SDS011;41355;50.390;19.096;2023-05-10T00:15:06;16.02;;;5.10;;
55493;SDS011;41355;50.390;19.096;2023-05-10T00:17:32;15.65;;;5.30;;
55493;SDS011;41355;50.390;19.096;2023-05-10T00:19:58;18.48;;;5.88;;
55493;SDS011;41355;50.390;19.096;2023-05-10T00:22:25;16.27;;;5.85;;
55493;SDS011;41355;50.390;19.096;2023-05-10T00:24:51;16.13;;;5.57;;
55493;SDS011;41355;50.390;19.096;2023-05-10T00:27:17;13.52;;;5.22;;
55493;SDS011;41355;50.390;19.096;2023-05-10T00:29:43;14.65;;;5.88;;
55493;SDS011;41355;50.390;19.096;2023-05-10T00:32:09;14.07;;;5.60;;
55493;SDS011;41355;50.390;19.096;2023-05-10T00:34:35;13.50;;;5.68;;
55493;SDS011;41355;50.390;19.096;2023-05-10T00:37:01;15.85;;;5.18;;
55493;SDS011;41355;50.390;19.096;2023-05-10T00:39:27;13.88;;;5.97;;
55493;SDS011;41355;50.390;19.096;2023-05-10T00:41:53;18.50;;;5.78;;
55493;SDS011;41355;50.390;19.096;2023-05-10T00:44:19;18.20;;;6.50;;
55493;SDS011;41355;50.390;19.096;2023-05-10T00:46:46;18.10;;;5.72;;
55493;SDS011;41355;50.390;19.096;2023-05-10T00:49:12;19.50;;;6.18;;
55493;SDS011;41355;50.390;19.096;2023-05-10T00:51:38;12.95;;;5.85;;
55493;SDS011;41355;50.390;19.096;2023-05-10T00:54:04;19.60;;;7.07;;
55493;SDS011;41355;50.390;19.096;2023-05-10T00:56:31;19.33;;;6.63;;
55493;SDS011;41355;50.390;19.096;2023-05-10T00:58:57;19.58;;;6.13;;
55493;SDS011;41355;50.390;19.096;2023-05-10T01:01:23;19.38;;;6.53;;
55493;SDS011;41355;50.390;19.096;2023-05-10T01:03:49;16.25;;;6.45;;
55493;SDS011;41355;50.390;19.096;2023-05-10T01:06:16;12.45;;;5.28;;
55493;SDS011;41355;50.390;19.096;2023-05-10T01:08:42;14.23;;;5.75;;
55493;SDS011;41355;50.390;19.096;2023-05-10T01:11:08;14.75;;;6.03;;
55493;SDS011;41355;50.390;19.096;2023-05-10T01:13:35;15.40;;;5.68;;
55493;SDS011;41355;50.390;19.096;2023-05-10T01:16:02;15.32;;;5.90;;
55493;SDS011;41355;50.390;19.096;2023-05-10T01:18:31;12.75;;;5.35;;
55493;SDS011;41355;50.390;19.096;2023-05-10T01:21:14;17.35;;;5.63;;
55493;SDS011;41355;50.390;19.096;2023-05-10T01:26:14;15.32;;;5.93;;
55493;SDS011;41355;50.390;19.096;2023-05-10T01:28:58;11.67;;;4.63;;
55493;SDS011;41355;50.390;19.096;2023-05-10T01:31:30;13.68;;;5.50;;
55493;SDS011;41355;50.390;19.096;2023-05-10T01:36:40;19.50;;;5.85;;
55493;SDS011;41355;50.390;19.096;2023-05-10T01:41:47;15.10;;;5.85;;
55493;SDS011;41355;50.390;19.096;2023-05-10T01:44:29;17.38;;;5.75;;
55493;SDS011;41355;50.390;19.096;2023-05-10T01:47:13;11.55;;;6.00;;
55493;SDS011;41355;50.390;19.096;2023-05-10T01:49:44;12.55;;;5.05;;
55493;SDS011;41355;50.390;19.096;2023-05-10T01:52:15;17.17;;;5.60;;
55493;SDS011;41355;50.390;19.096;2023-05-10T01:57:34;14.13;;;5.93;;
55493;SDS011;41355;50.390;19.096;2023-05-10T02:00:03;15.57;;;6.05;;
55493;SDS011;41355;50.390;19.096;2023-05-10T02:02:30;14.68;;;6.20;;
55493;SDS011;41355;50.390;19.096;2023-05-10T02:04:58;17.88;;;5.45;;
55493;SDS011;41355;50.390;19.096;2023-05-10T02:07:26;16.17;;;5.95;;
55493;SDS011;41355;50.390;19.096;2023-05-10T02:09:52;16.17;;;6.03;;
55493;SDS011;41355;50.390;19.096;2023-05-10T02:12:19;12.52;;;5.80;;
55493;SDS011;41355;50.390;19.096;2023-05-10T02:14:45;13.23;;;5.88;;
55493;SDS011;41355;50.390;19.096;2023-05-10T02:17:12;13.13;;;5.03;;
55493;SDS011;41355;50.390;19.096;2023-05-10T02:19:40;15.95;;;5.70;;
55493;SDS011;41355;50.390;19.096;2023-05-10T02:22:07;17.80;;;5.63;;
55493;SDS011;41355;50.390;19.096;2023-05-10T02:24:34;14.60;;;5.63;;
55493;SDS011;41355;50.390;19.096;2023-05-10T02:27:02;14.60;;;6.20;;
55493;SDS011;41355;50.390;19.096;2023-05-10T02:29:29;11.98;;;5.22;;
55493;SDS011;41355;50.390;19.096;2023-05-10T02:31:56;16.60;;;6.00;;
55493;SDS011;41355;50.390;19.096;2023-05-10T02:34:23;18.75;;;6.18;;
55493;SDS011;41355;50.390;19.096;2023-05-10T02:36:51;15.93;;;5.82;;
55493;SDS011;41355;50.390;19.096;2023-05-10T02:39:18;18.60;;;6.15;;
55493;SDS011;41355;50.390;19.096;2023-05-10T02:41:45;14.38;;;5.45;;
55493;SDS011;41355;50.390;19.096;2023-05-10T02:44:12;14.07;;;5.68;;
55493;SDS011;41355;50.390;19.096;2023-05-10T02:46:39;12.40;;;5.00;;
55493;SDS011;41355;50.390;19.096;2023-05-10T02:49:05;14.18;;;5.90;;
55493;SDS011;41355;50.390;19.096;2023-05-10T02:51:32;13.40;;;5.57;;
55493;SDS011;41355;50.390;19.096;2023-05-10T02:54:01;15.82;;;5.75;;
55493;SDS011;41355;50.390;19.096;2023-05-10T02:56:31;15.88;;;5.88;;
55493;SDS011;41355;50.390;19.096;2023-05-10T02:58:58;12.73;;;4.97;;
55493;SDS011;41355;50.390;19.096;2023-05-10T03:01:24;13.70;;;5.47;;
55493;SDS011;41355;50.390;19.096;2023-05-10T03:03:51;13.45;;;5.97;;
55493;SDS011;41355;50.390;19.096;2023-05-10T03:06:17;15.48;;;5.75;;
55493;SDS011;41355;50.390;19.096;2023-05-10T03:08:43;16.15;;;5.90;;
55493;SDS011;41355;50.390;19.096;2023-05-10T03:11:28;13.55;;;5.07;;
55493;SDS011;41355;50.390;19.096;2023-05-10T03:14:16;16.52;;;5.55;;
55493;SDS011;41355;50.390;19.096;2023-05-10T03:16:50;14.32;;;5.90;;
55493;SDS011;41355;50.390;19.096;2023-05-10T03:19:40;14.48;;;5.07;;
55493;SDS011;41355;50.390;19.096;2023-05-10T03:22:08;15.82;;;5.55;;
55493;SDS011;41355;50.390;19.096;2023-05-10T03:24:36;9.88;;;4.70;;
55493;SDS011;41355;50.390;19.096;2023-05-10T03:27:03;10.82;;;4.80;;
55493;SDS011;41355;50.390;19.096;2023-05-10T03:29:29;12.35;;;4.85;;
55493;SDS011;41355;50.390;19.096;2023-05-10T03:31:57;10.50;;;4.28;;
55493;SDS011;41355;50.390;19.096;2023-05-10T03:34:23;11.00;;;4.82;;
55493;SDS011;41355;50.390;19.096;2023-05-10T03:36:50;10.68;;;4.38;;
55493;SDS011;41355;50.390;19.096;2023-05-10T03:39:15;10.65;;;4.47;;
55493;SDS011;41355;50.390;19.096;2023-05-10T03:41:41;10.43;;;4.30;;
55493;SDS011;41355;50.390;19.096;2023-05-10T03:44:07;10.75;;;4.40;;
55493;SDS011;41355;50.390;19.096;2023-05-10T03:46:34;11.95;;;4.18;;
55493;SDS011;41355;50.390;19.096;2023-05-10T03:49:00;9.27;;;4.60;;
55493;SDS011;41355;50.390;19.096;2023-05-10T03:51:25;12.27;;;4.28;;
55493;SDS011;41355;50.390;19.096;2023-05-10T03:53:53;13.05;;;4.43;;
55493;SDS011;41355;50.390;19.096;2023-05-10T03:56:19;10.93;;;4.38;;
55493;SDS011;41355;50.390;19.096;2023-05-10T03:58:45;9.45;;;4.13;;
55493;SDS011;41355;50.390;19.096;2023-05-10T04:01:11;11.60;;;4.43;;
55493;SDS011;41355;50.390;19.096;2023-05-10T04:03:37;8.73;;;4.18;;
55493;SDS011;41355;50.390;19.096;2023-05-10T04:06:04;8.95;;;4.30;;
55493;SDS011;41355;50.390;19.096;2023-05-10T04:08:30;8.35;;;4.32;;
55493;SDS011;41355;50.390;19.096;2023-05-10T04:11:06;8.98;;;3.78;;
55493;SDS011;41355;50.390;19.096;2023-05-10T04:13:32;12.05;;;4.78;;
55493;SDS011;41355;50.390;19.096;2023-05-10T04:15:58;7.05;;;3.08;;
55493;SDS011;41355;50.390;19.096;2023-05-10T04:18:24;11.13;;;4.50;;
55493;SDS011;41355;50.390;19.096;2023-05-10T04:20:51;10.57;;;4.75;;
55493;SDS011;41355;50.390;19.096;2023-05-10T04:23:16;10.40;;;3.90;;
55493;SDS011;41355;50.390;19.096;2023-05-10T04:25:43;7.68;;;3.80;;
55493;SDS011;41355;50.390;19.096;2023-05-10T04:28:09;9.75;;;4.35;;
55493;SDS011;41355;50.390;19.096;2023-05-10T04:30:35;10.80;;;4.28;;
55493;SDS011;41355;50.390;19.096;2023-05-10T04:33:01;13.30;;;4.88;;
55493;SDS011;41355;50.390;19.096;2023-05-10T04:35:27;11.07;;;4.22;;
55493;SDS011;41355;50.390;19.096;2023-05-10T04:37:53;10.85;;;3.75;;
55493;SDS011;41355;50.390;19.096;2023-05-10T04:40:19;12.27;;;4.68;;
55493;SDS011;41355;50.390;19.096;2023-05-10T04:42:45;9.23;;;4.55;;
55493;SDS011;41355;50.390;19.096;2023-05-10T04:45:12;9.38;;;4.72;;
55493;SDS011;41355;50.390;19.096;2023-05-10T04:47:39;10.55;;;4.60;;
55493;SDS011;41355;50.390;19.096;2023-05-10T04:50:05;15.98;;;5.18;;
55493;SDS011;41355;50.390;19.096;2023-05-10T04:52:32;16.05;;;6.30;;
55493;SDS011;41355;50.390;19.096;2023-05-10T04:54:58;15.45;;;5.75;;
55493;SDS011;41355;50.390;19.096;2023-05-10T04:57:24;15.63;;;6.03;;
55493;SDS011;41355;50.390;19.096;2023-05-10T04:59:50;19.77;;;6.65;;
55493;SDS011;41355;50.390;19.096;2023-05-10T05:02:16;15.63;;;6.07;;
55493;SDS011;41355;50.390;19.096;2023-05-10T05:04:42;13.70;;;5.97;;
55493;SDS011;41355;50.390;19.096;2023-05-10T05:07:08;17.60;;;6.07;;
55493;SDS011;41355;50.390;19.096;2023-05-10T05:09:34;11.57;;;5.53;;
55493;SDS011;41355;50.390;19.096;2023-05-10T05:12:00;18.15;;;6.07;;
55493;SDS011;41355;50.390;19.096;2023-05-10T05:14:26;17.83;;;6.50;;
55493;SDS011;41355;50.390;19.096;2023-05-10T05:16:52;13.82;;;5.75;;
55493;SDS011;41355;50.390;19.096;2023-05-10T05:19:18;15.52;;;5.70;;
55493;SDS011;41355;50.390;19.096;2023-05-10T05:21:44;13.20;;;5.68;;
55493;SDS011;41355;50.390;19.096;2023-05-10T05:24:10;15.07;;;5.78;;
55493;SDS011;41355;50.390;19.096;2023-05-10T05:26:37;11.95;;;5.95;;
55493;SDS011;41355;50.390;19.096;2023-05-10T05:29:03;14.38;;;5.75;;
55493;SDS011;41355;50.390;19.096;2023-05-10T05:31:29;16.67;;;6.28;;
55493;SDS011;41355;50.390;19.096;2023-05-10T05:33:55;18.02;;;6.72;;
55493;SDS011;41355;50.390;19.096;2023-05-10T05:36:21;14.07;;;6.07;;
55493;SDS011;41355;50.390;19.096;2023-05-10T05:38:47;19.65;;;7.05;;
55493;SDS011;41355;50.390;19.096;2023-05-10T05:41:13;18.23;;;6.30;;
55493;SDS011;41355;50.390;19.096;2023-05-10T05:43:39;13.48;;;5.40;;
55493;SDS011;41355;50.390;19.096;2023-05-10T05:46:05;14.52;;;6.28;;
55493;SDS011;41355;50.390;19.096;2023-05-10T05:48:31;14.68;;;6.43;;
55493;SDS011;41355;50.390;19.096;2023-05-10T05:50:58;10.68;;;5.53;;
55493;SDS011;41355;50.390;19.096;2023-05-10T05:53:24;17.48;;;6.32;;
55493;SDS011;41355;50.390;19.096;2023-05-10T05:55:50;14.07;;;5.85;;
55493;SDS011;41355;50.390;19.096;2023-05-10T05:58:18;14.30;;;5.65;;
55493;SDS011;41355;50.390;19.096;2023-05-10T06:00:43;14.50;;;5.07;;
55493;SDS011;41355;50.390;19.096;2023-05-10T06:03:10;11.05;;;4.18;;
55493;SDS011;41355;50.390;19.096;2023-05-10T06:05:36;10.10;;;4.63;;
55493;SDS011;41355;50.390;19.096;2023-05-10T06:08:02;14.73;;;4.68;;
55493;SDS011;41355;50.390;19.096;2023-05-10T06:10:28;11.82;;;3.75;;
55493;SDS011;41355;50.390;19.096;2023-05-10T06:12:54;10.20;;;3.40;;
55493;SDS011;41355;50.390;19.096;2023-05-10T06:15:20;8.77;;;3.53;;
55493;SDS011;41355;50.390;19.096;2023-05-10T06:17:46;6.82;;;3.03;;
55493;SDS011;41355;50.390;19.096;2023-05-10T06:20:14;7.93;;;3.53;;
55493;SDS011;41355;50.390;19.096;2023-05-10T06:22:40;12.88;;;4.13;;
55493;SDS011;41355;50.390;19.096;2023-05-10T06:25:06;8.88;;;3.15;;
55493;SDS011;41355;50.390;19.096;2023-05-10T06:27:33;9.07;;;3.20;;
55493;SDS011;41355;50.390;19.096;2023-05-10T06:29:59;10.52;;;3.70;;
55493;SDS011;41355;50.390;19.096;2023-05-10T06:32:25;9.07;;;3.80;;
55493;SDS011;41355;50.390;19.096;2023-05-10T06:34:51;10.23;;;3.65;;
55493;SDS011;41355;50.390;19.096;2023-05-10T06:37:17;7.57;;;3.20;;
55493;SDS011;41355;50.390;19.096;2023-05-10T06:39:43;10.55;;;3.10;;
55493;SDS011;41355;50.390;19.096;2023-05-10T06:42:09;7.47;;;3.30;;
55493;SDS011;41355;50.390;19.096;2023-05-10T06:44:35;8.60;;;3.05;;
55493;SDS011;41355;50.390;19.096;2023-05-10T06:47:01;10.57;;;3.47;;
55493;SDS011;41355;50.390;19.096;2023-05-10T06:49:27;6.53;;;2.88;;
55493;SDS011;41355;50.390;19.096;2023-05-10T06:51:53;10.77;;;3.05;;
55493;SDS011;41355;50.390;19.096;2023-05-10T06:54:20;6.50;;;2.83;;
55493;SDS011;41355;50.390;19.096;2023-05-10T06:56:46;7.65;;;3.00;;
55493;SDS011;41355;50.390;19.096;2023-05-10T06:59:12;7.47;;;2.25;;
55493;SDS011;41355;50.390;19.096;2023-05-10T07:01:40;7.07;;;2.67;;
55493;SDS011;41355;50.390;19.096;2023-05-10T07:04:06;6.47;;;2.55;;
55493;SDS011;41355;50.390;19.096;2023-05-10T07:06:32;10.00;;;3.15;;
55493;SDS011;41355;50.390;19.096;2023-05-10T07:08:59;6.55;;;2.70;;
55493;SDS011;41355;50.390;19.096;2023-05-10T07:11:25;5.15;;;2.20;;
55493;SDS011;41355;50.390;19.096;2023-05-10T07:13:51;7.38;;;3.22;;
55493;SDS011;41355;50.390;19.096;2023-05-10T07:16:17;6.32;;;2.42;;
55493;SDS011;41355;50.390;19.096;2023-05-10T07:18:43;8.18;;;2.80;;
55493;SDS011;41355;50.390;19.096;2023-05-10T07:21:09;8.30;;;2.50;;
55493;SDS011;41355;50.390;19.096;2023-05-10T07:23:35;8.02;;;2.75;;
55493;SDS011;41355;50.390;19.096;2023-05-10T07:26:01;9.40;;;2.83;;
55493;SDS011;41355;50.390;19.096;2023-05-10T07:28:27;9.98;;;3.00;;
55493;SDS011;41355;50.390;19.096;2023-05-10T07:30:53;6.47;;;2.25;;
55493;SDS011;41355;50.390;19.096;2023-05-10T07:33:19;6.85;;;2.60;;
55493;SDS011;41355;50.390;19.096;2023-05-10T07:35:45;5.80;;;2.47;;
55493;SDS011;41355;50.390;19.096;2023-05-10T07:38:11;5.82;;;2.33;;
55493;SDS011;41355;50.390;19.096;2023-05-10T07:40:38;7.95;;;2.85;;
55493;SDS011;41355;50.390;19.096;2023-05-10T07:43:04;6.95;;;2.70;;
55493;SDS011;41355;50.390;19.096;2023-05-10T07:45:31;6.25;;;2.20;;
55493;SDS011;41355;50.390;19.096;2023-05-10T07:47:57;9.75;;;2.30;;
55493;SDS011;41355;50.390;19.096;2023-05-10T07:50:23;7.07;;;2.50;;
55493;SDS011;41355;50.390;19.096;2023-05-10T07:52:49;6.15;;;2.30;;
55493;SDS011;41355;50.390;19.096;2023-05-10T07:55:15;6.30;;;2.22;;
55493;SDS011;41355;50.390;19.096;2023-05-10T07:57:41;9.50;;;2.42;;
55493;SDS011;41355;50.390;19.096;2023-05-10T08:00:08;4.78;;;2.25;;
55493;SDS011;41355;50.390;19.096;2023-05-10T08:02:35;4.75;;;1.92;;
55493;SDS011;41355;50.390;19.096;2023-05-10T08:05:01;4.15;;;1.80;;
55493;SDS011;41355;50.390;19.096;2023-05-10T08:07:27;3.92;;;1.65;;
55493;SDS011;41355;50.390;19.096;2023-05-10T08:09:53;7.15;;;1.90;;
55493;SDS011;41355;50.390;19.096;2023-05-10T08:12:19;4.75;;;2.67;;
55493;SDS011;41355;50.390;19.096;2023-05-10T08:14:45;3.72;;;1.80;;
55493;SDS011;41355;50.390;19.096;2023-05-10T08:17:11;5.22;;;1.73;;
55493;SDS011;41355;50.390;19.096;2023-05-10T08:19:37;3.97;;;1.50;;
55493;SDS011;41355;50.390;19.096;2023-05-10T08:22:03;4.93;;;1.60;;
55493;SDS011;41355;50.390;19.096;2023-05-10T08:24:29;4.65;;;1.90;;
55493;SDS011;41355;50.390;19.096;2023-05-10T08:26:55;4.07;;;1.63;;
55493;SDS011;41355;50.390;19.096;2023-05-10T08:29:21;5.07;;;1.73;;
55493;SDS011;41355;50.390;19.096;2023-05-10T08:31:47;1.98;;;0.98;;
55493;SDS011;41355;50.390;19.096;2023-05-10T08:34:13;7.88;;;2.20;;
55493;SDS011;41355;50.390;19.096;2023-05-10T08:36:39;4.90;;;1.58;;
55493;SDS011;41355;50.390;19.096;2023-05-10T08:39:05;2.78;;;1.23;;
55493;SDS011;41355;50.390;19.096;2023-05-10T08:41:31;3.05;;;1.20;;
55493;SDS011;41355;50.390;19.096;2023-05-10T08:43:58;5.03;;;1.30;;
55493;SDS011;41355;50.390;19.096;2023-05-10T08:46:26;3.80;;;1.60;;
55493;SDS011;41355;50.390;19.096;2023-05-10T08:48:53;3.08;;;1.33;;
55493;SDS011;41355;50.390;19.096;2023-05-10T08:51:21;3.03;;;1.30;;
55493;SDS011;41355;50.390;19.096;2023-05-10T08:53:48;4.43;;;1.70;;
55493;SDS011;41355;50.390;19.096;2023-05-10T08:56:15;3.35;;;1.15;;
55493;SDS011;41355;50.390;19.096;2023-05-10T08:58:42;3.28;;;1.40;;
55493;SDS011;41355;50.390;19.096;2023-05-10T09:01:08;3.58;;;1.35;;
55493;SDS011;41355;50.390;19.096;2023-05-10T09:03:35;3.35;;;1.35;;
55493;SDS011;41355;50.390;19.096;2023-05-10T09:06:03;6.50;;;1.45;;
55493;SDS011;41355;50.390;19.096;2023-05-10T09:08:30;4.35;;;1.50;;
55493;SDS011;41355;50.390;19.096;2023-05-10T09:10:56;4.60;;;1.13;;
55493;SDS011;41355;50.390;19.096;2023-05-10T09:13:22;3.78;;;1.40;;
55493;SDS011;41355;50.390;19.096;2023-05-10T09:15:48;3.20;;;1.50;;
55493;SDS011;41355;50.390;19.096;2023-05-10T09:18:15;4.55;;;1.35;;
55493;SDS011;41355;50.390;19.096;2023-05-10T09:20:41;4.53;;;1.80;;
55493;SDS011;41355;50.390;19.096;2023-05-10T09:23:07;3.67;;;1.55;;
55493;SDS011;41355;50.390;19.096;2023-05-10T09:25:33;2.65;;;1.02;;
55493;SDS011;41355;50.390;19.096;2023-05-10T09:28:00;3.78;;;1.30;;
55493;SDS011;41355;50.390;19.096;2023-05-10T09:30:29;3.15;;;1.48;;
55493;SDS011;41355;50.390;19.096;2023-05-10T09:32:56;3.25;;;1.27;;
55493;SDS011;41355;50.390;19.096;2023-05-10T09:35:24;4.93;;;1.30;;
55493;SDS011;41355;50.390;19.096;2023-05-10T09:37:51;4.22;;;1.50;;
55493;SDS011;41355;50.390;19.096;2023-05-10T09:40:19;5.05;;;1.45;;
55493;SDS011;41355;50.390;19.096;2023-05-10T09:42:53;4.63;;;1.50;;
55493;SDS011;41355;50.390;19.096;2023-05-10T09:45:20;5.43;;;1.30;;
55493;SDS011;41355;50.390;19.096;2023-05-10T09:47:46;2.97;;;1.13;;
55493;SDS011;41355;50.390;19.096;2023-05-10T09:50:13;4.13;;;1.67;;
55493;SDS011;41355;50.390;19.096;2023-05-10T09:55:14;5.25;;;1.63;;
55493;SDS011;41355;50.390;19.096;2023-05-10T09:57:40;3.42;;;1.40;;
55493;SDS011;41355;50.390;19.096;2023-05-10T10:00:06;4.80;;;1.58;;
55493;SDS011;41355;50.390;19.096;2023-05-10T10:02:56;4.97;;;1.50;;
55493;SDS011;41355;50.390;19.096;2023-05-10T10:05:29;4.28;;;1.40;;
55493;SDS011;41355;50.390;19.096;2023-05-10T10:07:56;5.43;;;1.70;;
55493;SDS011;41355;50.390;19.096;2023-05-10T10:10:23;4.40;;;1.83;;
55493;SDS011;41355;50.390;19.096;2023-05-10T10:12:50;7.18;;;2.17;;
55493;SDS011;41355;50.390;19.096;2023-05-10T10:15:16;5.78;;;1.77;;
55493;SDS011;41355;50.390;19.096;2023-05-10T10:17:42;4.88;;;1.80;;
55493;SDS011;41355;50.390;19.096;2023-05-10T10:20:09;4.97;;;2.00;;
55493;SDS011;41355;50.390;19.096;2023-05-10T10:22:36;5.28;;;1.67;;
55493;SDS011;41355;50.390;19.096;2023-05-10T10:25:02;5.50;;;1.98;;
55493;SDS011;41355;50.390;19.096;2023-05-10T10:30:17;5.43;;;1.67;;
55493;SDS011;41355;50.390;19.096;2023-05-10T10:35:26;7.32;;;2.60;;
55493;SDS011;41355;50.390;19.096;2023-05-10T10:37:53;4.82;;;2.15;;
55493;SDS011;41355;50.390;19.096;2023-05-10T10:40:32;3.95;;;1.77;;
55493;SDS011;41355;50.390;19.096;2023-05-10T10:43:20;5.65;;;1.70;;
55493;SDS011;41355;50.390;19.096;2023-05-10T10:45:47;7.30;;;1.80;;
55493;SDS011;41355;50.390;19.096;2023-05-10T10:48:23;3.10;;;1.50;;
55493;SDS011;41355;50.390;19.096;2023-05-10T10:50:55;5.57;;;2.40;;
55493;SDS011;41355;50.390;19.096;2023-05-10T10:53:22;4.43;;;1.50;;
55493;SDS011;41355;50.390;19.096;2023-05-10T10:55:48;5.28;;;2.05;;
55493;SDS011;41355;50.390;19.096;2023-05-10T10:58:29;3.90;;;1.80;;
55493;SDS011;41355;50.390;19.096;2023-05-10T11:03:37;4.82;;;1.95;;
55493;SDS011;41355;50.390;19.096;2023-05-10T11:06:03;5.68;;;1.85;;
55493;SDS011;41355;50.390;19.096;2023-05-10T11:08:30;5.68;;;2.10;;
55493;SDS011;41355;50.390;19.096;2023-05-10T11:15:54;5.45;;;1.85;;
55493;SDS011;41355;50.390;19.096;2023-05-10T11:18:28;4.00;;;1.67;;
55493;SDS011;41355;50.390;19.096;2023-05-10T11:23:21;3.92;;;1.83;;
55493;SDS011;41355;50.390;19.096;2023-05-10T11:25:47;5.55;;;2.17;;
55493;SDS011;41355;50.390;19.096;2023-05-10T11:28:14;4.53;;;2.08;;
55493;SDS011;41355;50.390;19.096;2023-05-10T11:30:40;5.40;;;2.13;;
55493;SDS011;41355;50.390;19.096;2023-05-10T11:33:07;5.65;;;2.10;;
55493;SDS011;41355;50.390;19.096;2023-05-10T11:35:39;3.88;;;1.70;;
55493;SDS011;41355;50.390;19.096;2023-05-10T11:38:09;6.50;;;1.70;;
55493;SDS011;41355;50.390;19.096;2023-05-10T11:40:35;5.63;;;1.88;;
55493;SDS011;41355;50.390;19.096;2023-05-10T11:43:02;3.92;;;1.73;;
55493;SDS011;41355;50.390;19.096;2023-05-10T11:45:28;6.72;;;2.03;;
55493;SDS011;41355;50.390;19.096;2023-05-10T11:47:57;5.55;;;2.10;;
55493;SDS011;41355;50.390;19.096;2023-05-10T11:50:23;7.03;;;2.50;;
55493;SDS011;41355;50.390;19.096;2023-05-10T11:52:52;5.40;;;1.90;;
55493;SDS011;41355;50.390;19.096;2023-05-10T11:55:18;4.22;;;1.90;;
55493;SDS011;41355;50.390;19.096;2023-05-10T11:57:45;9.20;;;2.15;;
55493;SDS011;41355;50.390;19.096;2023-05-10T12:00:11;3.85;;;1.73;;
55493;SDS011;41355;50.390;19.096;2023-05-10T12:02:37;5.65;;;2.10;;
55493;SDS011;41355;50.390;19.096;2023-05-10T12:05:04;5.75;;;1.83;;
55493;SDS011;41355;50.390;19.096;2023-05-10T12:07:31;5.68;;;1.80;;
55493;SDS011;41355;50.390;19.096;2023-05-10T12:10:06;6.82;;;1.75;;
55493;SDS011;41355;50.390;19.096;2023-05-10T12:12:43;7.38;;;1.73;;
55493;SDS011;41355;50.390;19.096;2023-05-10T12:15:27;6.03;;;2.13;;
55493;SDS011;41355;50.390;19.096;2023-05-10T12:17:53;4.95;;;2.00;;
55493;SDS011;41355;50.390;19.096;2023-05-10T12:20:20;4.55;;;2.13;;
55493;SDS011;41355;50.390;19.096;2023-05-10T12:22:51;6.00;;;2.15;;
55493;SDS011;41355;50.390;19.096;2023-05-10T12:25:18;7.15;;;2.25;;
55493;SDS011;41355;50.390;19.096;2023-05-10T12:27:54;4.13;;;1.95;;
55493;SDS011;41355;50.390;19.096;2023-05-10T12:30:24;5.40;;;1.77;;
55493;SDS011;41355;50.390;19.096;2023-05-10T12:32:50;8.38;;;2.30;;
55493;SDS011;41355;50.390;19.096;2023-05-10T12:35:17;7.00;;;1.88;;
55493;SDS011;41355;50.390;19.096;2023-05-10T12:37:47;5.80;;;1.85;;
55493;SDS011;41355;50.390;19.096;2023-05-10T12:40:13;6.75;;;2.25;;
55493;SDS011;41355;50.390;19.096;2023-05-10T12:42:39;4.13;;;1.77;;
55493;SDS011;41355;50.390;19.096;2023-05-10T12:45:05;4.30;;;2.00;;
55493;SDS011;41355;50.390;19.096;2023-05-10T12:47:32;3.72;;;1.70;;
55493;SDS011;41355;50.390;19.096;2023-05-10T12:49:58;4.63;;;1.80;;
55493;SDS011;41355;50.390;19.096;2023-05-10T12:52:25;6.50;;;2.17;;
55493;SDS011;41355;50.390;19.096;2023-05-10T12:54:51;4.38;;;1.90;;
55493;SDS011;41355;50.390;19.096;2023-05-10T12:57:17;5.70;;;1.85;;
55493;SDS011;41355;50.390;19.096;2023-05-10T12:59:43;4.90;;;1.65;;
55493;SDS011;41355;50.390;19.096;2023-05-10T13:02:09;4.57;;;2.03;;
55493;SDS011;41355;50.390;19.096;2023-05-10T13:04:36;5.82;;;2.08;;
55493;SDS011;41355;50.390;19.096;2023-05-10T13:07:05;5.45;;;2.03;;
55493;SDS011;41355;50.390;19.096;2023-05-10T13:09:31;4.22;;;1.85;;
55493;SDS011;41355;50.390;19.096;2023-05-10T13:11:57;4.80;;;2.00;;
55493;SDS011;41355;50.390;19.096;2023-05-10T13:14:24;7.40;;;2.05;;
55493;SDS011;41355;50.390;19.096;2023-05-10T13:16:50;7.35;;;2.10;;
55493;SDS011;41355;50.390;19.096;2023-05-10T13:19:16;5.35;;;1.80;;
55493;SDS011;41355;50.390;19.096;2023-05-10T13:21:42;4.03;;;1.60;;
55493;SDS011;41355;50.390;19.096;2023-05-10T13:24:09;4.18;;;1.73;;
55493;SDS011;41355;50.390;19.096;2023-05-10T13:26:35;4.28;;;1.90;;
55493;SDS011;41355;50.390;19.096;2023-05-10T13:29:02;5.10;;;1.90;;
55493;SDS011;41355;50.390;19.096;2023-05-10T13:31:28;5.72;;;1.75;;
55493;SDS011;41355;50.390;19.096;2023-05-10T13:33:55;4.85;;;1.83;;
55493;SDS011;41355;50.390;19.096;2023-05-10T13:36:21;3.83;;;1.80;;
55493;SDS011;41355;50.390;19.096;2023-05-10T13:38:47;4.82;;;1.95;;
55493;SDS011;41355;50.390;19.096;2023-05-10T13:41:13;5.05;;;1.85;;
55493;SDS011;41355;50.390;19.096;2023-05-10T13:43:39;4.07;;;1.90;;
55493;SDS011;41355;50.390;19.096;2023-05-10T13:46:06;7.95;;;1.98;;
55493;SDS011;41355;50.390;19.096;2023-05-10T13:48:32;5.28;;;2.03;;
55493;SDS011;41355;50.390;19.096;2023-05-10T13:50:58;5.13;;;1.80;;
55493;SDS011;41355;50.390;19.096;2023-05-10T13:53:24;6.00;;;2.42;;
55493;SDS011;41355;50.390;19.096;2023-05-10T13:55:50;4.25;;;2.05;;
55493;SDS011;41355;50.390;19.096;2023-05-10T13:58:16;5.80;;;2.20;;
55493;SDS011;41355;50.390;19.096;2023-05-10T14:00:42;4.85;;;1.92;;
55493;SDS011;41355;50.390;19.096;2023-05-10T14:03:08;6.40;;;2.03;;
55493;SDS011;41355;50.390;19.096;2023-05-10T14:05:35;4.93;;;1.98;;
55493;SDS011;41355;50.390;19.096;2023-05-10T14:08:02;7.65;;;1.95;;
55493;SDS011;41355;50.390;19.096;2023-05-10T14:10:28;7.15;;;1.88;;
55493;SDS011;41355;50.390;19.096;2023-05-10T14:12:55;5.90;;;2.38;;
55493;SDS011;41355;50.390;19.096;2023-05-10T14:15:21;6.07;;;1.95;;
55493;SDS011;41355;50.390;19.096;2023-05-10T14:17:47;3.47;;;1.70;;
55493;SDS011;41355;50.390;19.096;2023-05-10T14:20:13;3.92;;;1.90;;
55493;SDS011;41355;50.390;19.096;2023-05-10T14:22:39;4.88;;;1.70;;
55493;SDS011;41355;50.390;19.096;2023-05-10T14:25:05;7.35;;;1.65;;
55493;SDS011;41355;50.390;19.096;2023-05-10T14:27:31;5.15;;;1.88;;
55493;SDS011;41355;50.390;19.096;2023-05-10T14:29:57;7.32;;;1.90;;
55493;SDS011;41355;50.390;19.096;2023-05-10T14:32:23;5.30;;;1.80;;
55493;SDS011;41355;50.390;19.096;2023-05-10T14:34:51;9.20;;;2.40;;
55493;SDS011;41355;50.390;19.096;2023-05-10T14:37:17;5.35;;;2.08;;
55493;SDS011;41355;50.390;19.096;2023-05-10T14:39:43;6.70;;;2.40;;
55493;SDS011;41355;50.390;19.096;2023-05-10T14:42:10;5.80;;;2.28;;
55493;SDS011;41355;50.390;19.096;2023-05-10T14:44:37;6.13;;;2.40;;
55493;SDS011;41355;50.390;19.096;2023-05-10T14:47:03;4.43;;;1.92;;
55493;SDS011;41355;50.390;19.096;2023-05-10T14:49:29;6.60;;;2.00;;
55493;SDS011;41355;50.390;19.096;2023-05-10T14:51:55;4.15;;;1.70;;
55493;SDS011;41355;50.390;19.096;2023-05-10T14:54:21;12.10;;;3.20;;
55493;SDS011;41355;50.390;19.096;2023-05-10T14:56:47;6.07;;;2.10;;